Time;durP1;ratioP1;P1;durP2;ratioP2;P2;SDS_P1;SDS_P2;PMS_P1;PMS_P2;Temp;Humidity;BMP_temperature;BMP_pressure;BME280_temperature;BME280_humidity;BME280_pressure;Samples;Min_cycle;Max_cycle;Signal;HPM_P1;HPM_P2
2022/07/20 00:00:40;;;;;;;13.30;8.00;;;;;;;18.79;61.35;100672.98;2012371;88;27683;-59
2022/07/20 00:03:41;;;;;;;15.80;8.25;;;;;;;18.75;61.25;100673.72;1997278;89;29114;-58
2022/07/20 00:06:43;;;;;;;14.30;7.40;;;;;;;18.72;61.41;100667.17;1992208;89;31382;-60
2022/07/20 00:13:04;;;;;;;15.30;6.85;;;;;;;18.65;61.65;100665.44;1997479;89;29721;-59
2022/07/20 00:16:06;;;;;;;13.18;8.60;;;;;;;18.62;61.59;100661.59;1992392;89;27675;-59
2022/07/20 00:19:08;;;;;;;16.73;8.58;;;;;;;18.61;61.62;100659.02;2017594;88;29942;-59
2022/07/20 00:22:09;;;;;;;14.33;7.45;;;;;;;18.59;61.63;100657.76;2019354;88;32206;-58
2022/07/20 00:25:10;;;;;;;15.23;7.20;;;;;;;18.55;61.64;100654.91;2019349;88;33860;-58
2022/07/20 00:28:12;;;;;;;13.85;8.43;;;;;;;18.51;61.77;100657.51;2019377;88;30462;-60
2022/07/20 00:31:13;;;;;;;13.85;7.33;;;;;;;18.47;61.74;100660.08;2019512;88;27716;-59
2022/07/20 00:34:14;;;;;;;16.70;8.90;;;;;;;18.40;61.81;100654.27;2019438;88;29022;-60
2022/07/20 00:37:16;;;;;;;16.70;8.05;;;;;;;18.35;61.92;100656.45;2019531;88;31464;-60
2022/07/20 00:40:19;;;;;;;16.27;8.23;;;;;;;18.30;62.17;100651.39;2018389;88;29594;-59
2022/07/20 00:43:20;;;;;;;18.73;8.48;;;;;;;18.27;62.37;100657.05;2019322;88;29378;-61
2022/07/20 00:46:23;;;;;;;16.23;8.10;;;;;;;18.25;62.39;100652.73;2072531;85;27656;-59
2022/07/20 00:49:24;;;;;;;15.18;8.53;;;;;;;18.20;62.46;100649.88;2074047;85;28730;-59
2022/07/20 00:52:25;;;;;;;15.28;8.60;;;;;;;18.16;62.54;100652.44;2053079;86;31000;-57
2022/07/20 00:55:27;;;;;;;18.52;7.90;;;;;;;18.15;62.64;100655.27;2073280;85;33342;-58
2022/07/20 00:58:29;;;;;;;12.25;7.95;;;;;;;18.13;62.65;100654.02;2052968;86;30058;-60
2022/07/20 01:01:31;;;;;;;13.30;7.85;;;;;;;18.11;62.71;100648.34;2076066;85;27704;-59
2022/07/20 01:04:33;;;;;;;12.00;8.23;;;;;;;18.11;62.81;100653.77;2052759;86;28655;-60
2022/07/20 01:07:34;;;;;;;11.38;7.55;;;;;;;18.08;62.73;100652.17;2054823;86;31423;-59
2022/07/20 01:10:36;;;;;;;20.85;7.80;;;;;;;18.07;62.82;100655.86;2054931;86;34168;-60
2022/07/20 01:13:37;;;;;;;14.43;8.10;;;;;;;18.05;62.82;100651.04;2082315;85;29342;-59
2022/07/20 01:16:39;;;;;;;18.42;8.43;;;;;;;18.02;62.83;100647.20;2090260;85;27703;-60
2022/07/20 01:19:40;;;;;;;14.28;7.62;;;;;;;17.99;62.88;100646.95;2078465;85;29042;-61
2022/07/20 01:22:45;;;;;;;18.17;8.03;;;;;;;17.96;62.97;100647.62;2082151;85;32245;-60
2022/07/20 01:25:46;;;;;;;17.17;7.70;;;;;;;17.94;62.88;100648.25;2090230;85;32999;-59
2022/07/20 01:28:48;;;;;;;12.40;7.92;;;;;;;17.89;62.98;100643.16;2089864;85;30017;-59
2022/07/20 01:31:50;;;;;;;11.20;7.80;;;;;;;17.84;62.99;100641.30;2089919;85;27636;-59
2022/07/20 01:34:52;;;;;;;15.08;8.65;;;;;;;17.79;62.94;100640.27;2089787;85;29562;-59
2022/07/20 01:37:53;;;;;;;12.10;7.72;;;;;;;17.73;62.99;100642.09;2090197;85;31418;-58
2022/07/20 01:40:55;;;;;;;16.00;8.68;;;;;;;17.67;63.06;100639.83;2089763;85;34211;-59
2022/07/20 01:43:57;;;;;;;15.50;7.37;;;;;;;17.62;63.23;100642.89;2090129;85;29356;-59
2022/07/20 01:46:58;;;;;;;15.78;7.62;;;;;;;17.57;63.41;100645.94;2068589;85;27638;-60
2022/07/20 01:50:00;;;;;;;12.47;7.15;;;;;;;17.52;63.51;100643.20;2077026;85;28926;-60
2022/07/20 01:53:01;;;;;;;15.05;8.20;;;;;;;17.47;63.65;100642.16;2077034;85;31470;-60
2022/07/20 01:56:03;;;;;;;12.10;8.08;;;;;;;17.42;63.75;100636.23;2076576;85;33051;-60
2022/07/20 01:59:05;;;;;;;16.35;7.75;;;;;;;17.38;63.86;100642.84;2076636;85;30521;-60
2022/07/20 02:02:07;;;;;;;17.07;8.00;;;;;;;17.34;64.07;100637.27;2077000;85;27673;-59
2022/07/20 02:05:09;;;;;;;13.83;8.43;;;;;;;17.29;64.01;100632.20;2076720;85;29886;-60
2022/07/20 02:08:11;;;;;;;21.23;9.05;;;;;;;17.23;64.17;100632.16;2076711;85;32323;-59
2022/07/20 02:11:13;;;;;;;16.57;8.95;;;;;;;17.20;64.26;100632.88;2076655;85;34128;-59
2022/07/20 02:14:14;;;;;;;15.18;8.53;;;;;;;17.15;64.40;100631.83;2076804;85;30167;-59
2022/07/20 02:17:16;;;;;;;19.42;10.28;;;;;;;17.13;64.47;100635.13;2075436;85;27708;-60
2022/07/20 02:20:17;;;;;;;21.93;14.13;;;;;;;17.09;64.53;100635.85;2067589;86;29069;-58
2022/07/20 02:23:19;;;;;;;12.85;9.65;;;;;;;17.06;64.53;100636.06;2067813;86;31374;-58
2022/07/20 02:26:20;;;;;;;19.92;12.58;;;;;;;17.03;64.76;100634.96;2067645;86;33247;-60
2022/07/20 02:29:22;;;;;;;20.27;10.93;;;;;;;17.01;64.78;100643.67;2067798;86;29384;-59
2022/07/20 02:32:25;;;;;;;20.27;13.22;;;;;;;16.97;64.91;100635.38;2068049;85;27632;-60
2022/07/20 02:35:27;;;;;;;19.80;12.47;;;;;;;16.93;64.88;100639.25;2032887;87;28659;-59
2022/07/20 02:38:30;;;;;;;17.80;11.80;;;;;;;16.90;65.00;100638.10;1996623;89;31686;-59
2022/07/20 02:41:32;;;;;;;15.23;10.55;;;;;;;16.86;65.07;100630.70;1982554;89;34052;-58
2022/07/20 02:44:34;;;;;;;16.67;11.65;;;;;;;16.83;65.19;100636.32;1985582;87;29988;-60
2022/07/20 02:47:43;;;;;;;21.50;11.28;;;;;;;16.81;65.19;100642.33;2010552;88;27757;-58
2022/07/20 02:50:45;;;;;;;17.00;11.30;;;;;;;16.78;65.16;100647.98;2034741;87;28735;-58
2022/07/20 02:53:46;;;;;;;17.35;10.08;;;;;;;16.71;65.51;100650.25;2035123;87;31039;-59
2022/07/20 02:56:48;;;;;;;14.95;10.80;;;;;;;16.71;65.51;100650.25;2034428;87;33016;-59
2022/07/20 02:59:49;;;;;;;17.60;10.45;;;;;;;16.67;65.49;100650.93;2034856;87;29362;-60
2022/07/20 03:02:51;;;;;;;15.43;10.10;;;;;;;16.65;65.48;100652.02;2034695;87;27741;-58
2022/07/20 03:05:52;;;;;;;15.48;9.85;;;;;;;16.63;65.53;100645.84;2034840;87;28991;-59
2022/07/20 03:08:54;;;;;;;15.45;9.90;;;;;;;16.62;65.70;100645.47;2035076;87;31403;-59
2022/07/20 03:11:57;;;;;;;13.43;9.53;;;;;;;16.61;65.78;100645.08;2034365;87;34287;-60
2022/07/20 03:14:59;;;;;;;16.62;9.60;;;;;;;16.60;65.88;100647.41;2034424;87;29555;-60
2022/07/20 03:18:00;;;;;;;20.00;10.20;;;;;;;16.60;65.94;100652.34;2034326;87;27758;-58
2022/07/20 03:21:04;;;;;;;11.97;9.50;;;;;;;16.62;66.07;100650.87;2034672;87;29048;-59
2022/07/20 03:24:06;;;;;;;13.08;9.45;;;;;;;16.63;66.14;100652.11;2034805;87;31032;-59
2022/07/20 03:27:08;;;;;;;13.53;8.98;;;;;;;16.66;66.29;100653.75;2034646;87;33951;-59
2022/07/20 03:30:12;;;;;;;12.70;8.80;;;;;;;16.69;66.32;100650.84;2034315;87;30500;-58
2022/07/20 03:33:14;;;;;;;12.40;9.43;;;;;;;16.74;66.35;100655.92;2070428;85;27704;-59
2022/07/20 03:36:15;;;;;;;11.57;9.08;;;;;;;16.79;66.53;100651.91;2077554;85;29218;-58
2022/07/20 03:39:18;;;;;;;13.70;9.95;;;;;;;16.80;66.53;100640.59;2068939;86;32370;-60
2022/07/20 03:42:20;;;;;;;20.52;10.60;;;;;;;16.90;66.58;100657.05;2068716;86;33377;-61
2022/07/20 03:45:22;;;;;;;18.30;10.03;;;;;;;16.93;66.44;100655.02;2068794;85;29894;-58
2022/07/20 03:48:26;;;;;;;16.07;9.35;;;;;;;17.00;66.41;100667.15;2066683;85;27704;-57
2022/07/20 03:51:29;;;;;;;14.65;9.78;;;;;;;17.08;66.54;100674.72;2072313;85;28845;-59
2022/07/20 03:54:30;;;;;;;14.03;9.50;;;;;;;17.16;66.58;100677.77;2071878;85;31928;-60
2022/07/20 03:57:32;;;;;;;15.90;9.65;;;;;;;17.25;66.57;100673.53;2043359;87;33326;-59
2022/07/20 04:00:35;;;;;;;11.73;9.10;;;;;;;17.35;66.64;100673.73;2043146;86;30550;-60
2022/07/20 04:03:37;;;;;;;17.80;9.65;;;;;;;17.44;66.45;100671.70;2072232;85;27641;-61
2022/07/20 04:06:39;;;;;;;15.28;9.00;;;;;;;17.56;66.53;100673.12;2071929;85;29987;-59
2022/07/20 04:09:44;;;;;;;16.60;10.60;;;;;;;17.67;66.51;100677.77;2043287;87;31818;-60
2022/07/20 04:12:46;;;;;;;17.35;10.08;;;;;;;17.77;66.07;100678.84;2072090;85;33010;-60
2022/07/20 04:15:49;;;;;;;12.98;9.83;;;;;;;17.89;65.91;100677.91;2039119;87;30201;-59
2022/07/20 04:18:51;;;;;;;18.50;10.78;;;;;;;18.03;65.74;100674.69;2050936;86;27686;-60
2022/07/20 04:21:56;;;;;;;17.90;11.28;;;;;;;18.14;65.46;100676.09;2051389;86;28825;-61
2022/07/20 04:24:58;;;;;;;19.35;11.40;;;;;;;18.28;65.24;100669.62;2065353;86;31077;-60
2022/07/20 04:28:00;;;;;;;15.85;9.65;;;;;;;18.42;65.00;100676.72;2064946;85;34354;-59
2022/07/20 04:31:02;;;;;;;21.02;11.05;;;;;;;18.57;64.79;100665.66;2065011;86;30525;-59
2022/07/20 04:34:05;;;;;;;18.73;9.80;;;;;;;18.71;64.52;100668.16;2065168;85;27785;-61
2022/07/20 04:37:07;;;;;;;17.50;9.45;;;;;;;18.86;64.33;100674.24;2065208;86;28695;-59
2022/07/20 04:40:11;;;;;;;19.17;10.58;;;;;;;19.01;64.06;100674.89;2065218;86;31403;-59
2022/07/20 04:43:13;;;;;;;16.27;10.00;;;;;;;19.18;63.78;100676.28;2065400;85;33029;-60
2022/07/20 04:46:15;;;;;;;21.40;9.35;;;;;;;19.59;63.99;100678.84;2069320;85;30148;-61
2022/07/20 04:49:17;;;;;;;16.37;8.83;;;;;;;20.60;63.64;100674.55;2075749;85;27771;-60
2022/07/20 04:52:23;;;;;;;18.27;8.98;;;;;;;21.84;62.74;100672.40;2075466;85;29312;-59
2022/07/20 04:55:25;;;;;;;17.40;9.38;;;;;;;23.08;61.09;100677.22;2075829;85;31833;-61
2022/07/20 04:58:31;;;;;;;11.33;6.70;;;;;;;24.22;59.52;100676.58;2075605;85;33811;-61
2022/07/20 05:01:32;;;;;;;10.63;5.60;;;;;;;25.28;56.83;100677.55;2075608;85;30638;-60
2022/07/20 05:04:33;;;;;;;13.62;7.28;;;;;;;26.19;55.93;100676.02;2075610;85;27759;-59
2022/07/20 05:07:35;;;;;;;10.55;5.08;;;;;;;27.18;54.12;100677.87;2075614;85;29171;-60
2022/07/20 05:10:37;;;;;;;7.45;5.15;;;;;;;28.07;53.06;100680.06;2075799;85;31454;-60
2022/07/20 05:13:47;;;;;;;12.75;7.53;;;;;;;28.92;51.13;100679.08;2075560;85;33615;-58
2022/07/20 05:16:51;;;;;;;10.25;6.30;;;;;;;29.70;49.99;100680.60;2076956;85;29234;-60
2022/07/20 05:19:58;;;;;;;11.95;6.92;;;;;;;30.36;48.25;100684.34;2078096;85;27769;-60
2022/07/20 05:23:04;;;;;;;14.20;7.00;;;;;;;30.91;46.76;100686.01;2077173;85;28077;-60
2022/07/20 05:26:09;;;;;;;9.70;7.40;;;;;;;31.42;45.45;100685.41;2075656;85;31015;-59
2022/07/20 05:29:20;;;;;;;12.37;6.78;;;;;;;31.88;43.73;100686.16;2075421;85;33043;-60
2022/07/20 05:32:26;;;;;;;12.45;6.70;;;;;;;32.24;43.21;100679.42;2075692;85;30419;-58
2022/07/20 05:35:28;;;;;;;9.23;6.40;;;;;;;32.61;41.26;100676.80;2075926;85;27741;-61
2022/07/20 05:38:29;;;;;;;11.08;7.20;;;;;;;32.80;40.46;100673.16;2075804;85;29889;-60
2022/07/20 05:41:31;;;;;;;9.45;5.67;;;;;;;32.96;40.39;100673.82;2075704;85;31382;-59
2022/07/20 05:44:32;;;;;;;9.18;6.12;;;;;;;33.24;39.64;100676.33;2075768;85;32928;-59
2022/07/20 05:47:34;;;;;;;16.42;6.62;;;;;;;33.41;39.11;100673.98;2073630;85;29370;-61
2022/07/20 05:50:36;;;;;;;6.78;4.42;;;;;;;33.35;37.97;100674.81;2073176;85;27645;-60
2022/07/20 05:53:37;;;;;;;9.98;5.87;;;;;;;33.41;37.89;100670.33;2075204;85;28659;-60
2022/07/20 05:56:39;;;;;;;13.70;6.67;;;;;;;33.59;36.95;100670.47;2078437;85;31709;-61
2022/07/20 05:59:41;;;;;;;8.40;4.90;;;;;;;33.75;36.82;100673.83;2078120;85;33015;-60
2022/07/20 06:02:43;;;;;;;15.98;5.95;;;;;;;33.76;36.27;100666.64;2078471;85;29333;-59
2022/07/20 06:05:44;;;;;;;6.87;3.47;;;;;;;33.87;35.55;100669.81;2078546;85;27677;-61
2022/07/20 06:08:46;;;;;;;4.25;2.62;;;;;;;34.04;35.60;100671.03;2078564;85;29457;-61
2022/07/20 06:11:48;;;;;;;10.88;6.25;;;;;;;34.34;34.98;100680.13;2078368;85;31911;-60
2022/07/20 06:14:50;;;;;;;8.80;4.67;;;;;;;34.66;34.43;100682.06;2078450;85;33493;-58
2022/07/20 06:17:53;;;;;;;7.40;5.60;;;;;;;34.98;33.90;100684.24;2078761;85;29702;-62
2022/07/20 06:20:54;;;;;;;;;;;;;;;35.39;33.90;100689.39;2081547;85;27672;-60
2022/07/20 06:23:56;;;;;;;3.05;2.80;;;;;;;35.88;33.05;100693.61;2075875;85;27648;-60
2022/07/20 06:26:57;;;;;;;11.22;5.75;;;;;;;36.22;32.44;100699.59;2073068;85;30877;-59
2022/07/20 06:30:00;;;;;;;7.58;4.95;;;;;;;36.45;31.80;100689.07;2073235;85;33365;-61
2022/07/20 06:33:01;;;;;;;12.40;6.17;;;;;;;36.68;31.19;100695.79;2073239;85;29293;-59
2022/07/20 06:36:03;;;;;;;9.18;5.40;;;;;;;36.91;30.26;100695.48;2073105;85;27779;-61
2022/07/20 06:39:05;;;;;;;3.10;2.35;;;;;;;37.18;30.96;100695.88;2073262;85;29085;-61
2022/07/20 06:42:06;;;;;;;9.40;4.33;;;;;;;37.57;30.64;100692.55;2073030;85;31130;-60
2022/07/20 06:45:09;;;;;;;7.70;4.55;;;;;;;38.00;29.39;100693.16;2072891;85;33812;-59
2022/07/20 06:48:10;;;;;;;4.08;2.25;;;;;;;38.14;29.42;100691.73;2073664;85;30533;-61
2022/07/20 06:51:12;;;;;;;5.40;4.53;;;;;;;38.33;28.58;100692.92;2074078;85;27688;-60
2022/07/20 06:54:13;;;;;;;3.00;2.15;;;;;;;38.58;28.44;100698.71;2079738;85;29886;-60
2022/07/20 06:57:15;;;;;;;6.42;5.00;;;;;;;38.91;28.35;100688.63;2089691;85;31079;-59
2022/07/20 07:00:16;;;;;;;2.95;1.85;;;;;;;39.11;27.54;100686.67;2089630;85;33910;-59
2022/07/20 07:03:17;;;;;;;3.58;2.30;;;;;;;39.28;27.58;100690.84;2089816;85;30545;-61
2022/07/20 07:06:19;;;;;;;17.25;5.17;;;;;;;39.42;27.11;100694.13;2090212;85;27526;-61
2022/07/20 07:09:20;;;;;;;2.40;1.70;;;;;;;39.73;26.27;100702.09;2089836;85;29890;-60
2022/07/20 07:12:22;;;;;;;7.87;4.67;;;;;;;39.76;26.44;100698.22;2089972;85;31400;-61
2022/07/20 07:15:26;;;;;;;7.03;4.50;;;;;;;40.05;26.14;100699.38;2090034;85;33745;-60
2022/07/20 07:18:27;;;;;;;2.58;2.20;;;;;;;40.34;25.81;100699.69;2089995;85;30176;-60
2022/07/20 07:21:29;;;;;;;4.35;3.50;;;;;;;40.55;25.46;100700.17;2089868;85;27680;-61
2022/07/20 07:24:31;;;;;;;6.72;5.25;;;;;;;40.73;25.16;100697.23;2088584;85;29242;-61
2022/07/20 07:27:33;;;;;;;4.60;3.10;;;;;;;40.71;23.62;100690.49;2087939;85;32354;-61
2022/07/20 07:30:34;;;;;;;8.35;3.67;;;;;;;40.71;23.95;100697.52;2087614;84;33493;-60
2022/07/20 07:33:35;;;;;;;11.12;4.12;;;;;;;40.62;23.79;100698.53;2088040;85;30441;-60
2022/07/20 07:36:37;;;;;;;4.25;2.87;;;;;;;40.69;23.75;100697.80;2088058;85;27641;-61
2022/07/20 07:39:39;;;;;;;4.50;1.70;;;;;;;40.81;23.91;100698.16;2088221;85;28472;-60
2022/07/20 07:42:41;;;;;;;2.90;2.70;;;;;;;40.78;23.73;100696.73;2088040;85;33129;-60
2022/07/20 07:45:43;;;;;;;3.05;2.60;;;;;;;40.88;23.82;100697.34;2087634;85;34168;-59
2022/07/20 07:48:44;;;;;;;6.62;4.15;;;;;;;40.99;23.76;100694.05;2076751;84;30479;-61
2022/07/20 07:51:46;;;;;;;5.35;3.90;;;;;;;41.06;23.24;100696.08;2075829;85;27712;-61
2022/07/20 07:54:47;;;;;;;1.80;1.37;;;;;;;41.06;23.22;100695.21;2077856;85;29826;-61
2022/07/20 07:57:48;;;;;;;6.12;3.52;;;;;;;41.05;23.13;100687.35;2077878;85;30901;-61
2022/07/20 08:00:50;;;;;;;7.47;4.70;;;;;;;41.09;23.34;100680.11;2078050;85;33327;-61
2022/07/20 08:03:51;;;;;;;6.72;5.00;;;;;;;41.06;22.94;100686.23;2078196;85;29694;-61
2022/07/20 08:06:53;;;;;;;16.45;5.50;;;;;;;40.78;21.89;100685.50;2078163;85;27657;-62
2022/07/20 08:09:54;;;;;;;6.80;4.55;;;;;;;40.38;22.58;100688.23;2077666;85;29890;-61
2022/07/20 08:12:56;;;;;;;3.90;2.30;;;;;;;40.39;22.76;100692.16;2077911;85;31582;-60
2022/07/20 08:15:58;;;;;;;8.68;3.55;;;;;;;40.47;23.20;100680.16;2077807;85;48341;-61
2022/07/20 08:19:00;;;;;;;4.00;1.95;;;;;;;40.60;23.24;100677.47;2077763;85;29126;-62
2022/07/20 08:22:01;;;;;;;4.03;1.80;;;;;;;40.73;23.31;100683.19;2077928;85;27718;-61
2022/07/20 08:25:03;;;;;;;10.48;4.65;;;;;;;40.89;23.47;100681.34;2075609;85;29959;-61
2022/07/20 08:28:24;;;;;;;7.55;4.60;;;;;;;40.92;22.61;100686.43;2075461;85;32416;-62
2022/07/20 08:31:23;;;;;;;7.22;4.70;;;;;;;40.95;22.67;100685.32;2075183;85;35181;-61
2022/07/20 08:34:25;;;;;;;9.93;5.03;;;;;;;41.07;22.31;100685.16;2075869;85;30536;-62
2022/07/20 08:37:30;;;;;;;7.62;3.87;;;;;;;41.04;21.45;100683.42;2075759;85;28236;-60
2022/07/20 08:40:38;;;;;;;2.67;1.75;;;;;;;41.06;21.35;100685.38;2075909;85;28716;-60
2022/07/20 08:43:46;;;;;;;2.50;1.55;;;;;;;41.02;22.23;100686.48;2075420;85;31058;-62
2022/07/20 08:46:48;;;;;;;6.85;4.83;;;;;;;40.99;22.40;100683.67;2080425;84;34052;-60
2022/07/20 08:49:50;;;;;;;10.23;4.55;;;;;;;40.92;21.90;100676.02;2111205;84;29750;-65
2022/07/20 08:52:53;;;;;;;11.48;5.37;;;;;;;40.82;21.21;100680.18;2100816;84;36760;-70
2022/07/20 08:55:54;;;;;;;5.22;2.90;;;;;;;40.89;20.88;100682.17;2086246;85;28643;-66
2022/07/20 08:58:55;;;;;;;8.13;3.95;;;;;;;41.03;21.22;100676.94;2086604;85;31374;-69
2022/07/20 09:02:05;;;;;;;6.80;3.08;;;;;;;41.19;20.49;100672.84;2085794;85;34295;-67
2022/07/20 09:05:07;;;;;;;6.30;3.47;;;;;;;41.22;20.59;100676.52;2085965;85;29700;-68
2022/07/20 09:08:14;;;;;;;5.05;3.33;;;;;;;41.32;20.86;100669.52;2086331;85;27810;-63
2022/07/20 09:11:17;;;;;;;6.12;2.42;;;;;;;41.48;20.70;100665.36;2086166;85;28691;-69
2022/07/20 09:14:41;;;;;;;;;;;;;;;41.40;19.55;100664.80;2088788;85;31036;-70
2022/07/20 09:17:42;;;;;;;5.05;3.27;;;;;;;41.39;20.30;100667.31;2085877;85;34215;-68
2022/07/20 09:20:49;;;;;;;3.80;1.82;;;;;;;41.29;18.78;100673.73;2086230;85;30460;-62
2022/07/20 09:23:54;;;;;;;3.98;3.62;;;;;;;40.99;19.93;100661.73;2104257;84;27611;-69
2022/07/20 09:27:04;;;;;;;4.00;2.95;;;;;;;41.00;19.09;100668.50;2110482;84;29932;-68
2022/07/20 09:30:10;;;;;;;1.82;1.72;;;;;;;40.95;19.64;100668.46;2111302;84;31152;-64
2022/07/20 09:33:12;;;;;;;3.50;3.20;;;;;;;40.97;20.21;100668.17;2111026;84;33016;-68
2022/07/20 09:36:15;;;;;;;4.15;2.70;;;;;;;40.64;19.06;100668.80;2110917;84;29349;-65
2022/07/20 09:39:20;;;;;;;4.72;3.00;;;;;;;40.57;19.73;100664.78;2111088;84;28349;-62
2022/07/20 09:42:39;;;;;;;4.72;3.22;;;;;;;40.45;19.22;100670.61;2111123;84;28646;-62
2022/07/20 09:45:41;;;;;;;4.62;2.65;;;;;;;40.22;19.31;100667.03;2110837;84;32405;-62
2022/07/20 09:48:49;;;;;;;3.47;2.65;;;;;;;40.19;19.95;100654.92;2109334;84;33631;-69
2022/07/20 09:52:02;;;;;;;2.47;1.92;;;;;;;40.15;20.22;100664.95;2106447;84;29499;-68
2022/07/20 09:55:05;;;;;;;4.70;3.43;;;;;;;40.07;20.24;100655.62;2090344;85;27689;-69
2022/07/20 09:58:08;;;;;;;3.00;2.30;;;;;;;39.87;19.96;100647.86;2090079;85;29509;-69
2022/07/20 10:01:09;;;;;;;7.28;3.47;;;;;;;39.64;20.26;100650.64;2090246;85;31871;-67
2022/07/20 10:04:12;;;;;;;7.65;3.08;;;;;;;39.41;19.97;100644.77;2089720;85;34360;-62
2022/07/20 10:07:13;;;;;;;5.35;3.25;;;;;;;39.04;19.75;100645.39;2090210;85;28553;-70
2022/07/20 10:10:16;;;;;;;2.75;1.65;;;;;;;38.58;19.62;100642.71;2090150;85;27658;-69
2022/07/20 10:13:18;;;;;;;3.30;2.30;;;;;;;38.35;20.88;100639.51;2090265;85;28657;-66
2022/07/20 10:16:50;;;;;;;2.80;2.47;;;;;;;38.01;20.39;100640.30;2089958;85;31115;-64
2022/07/20 10:19:51;;;;;;;6.03;2.58;;;;;;;37.72;20.85;100635.27;2090114;85;34105;-67
2022/07/20 10:23:18;;;;;;;2.22;2.02;;;;;;;37.49;20.81;100636.48;2100168;84;29723;-64
2022/07/20 10:26:26;;;;;;;7.92;3.30;;;;;;;37.39;21.61;100637.12;2111432;84;27669;-60
2022/07/20 10:29:32;;;;;;;3.15;2.70;;;;;;;37.21;20.82;100633.09;2111526;84;29053;-68
2022/07/20 10:32:37;;;;;;;2.05;1.52;;;;;;;37.08;21.33;100636.42;2111505;84;31852;-63
2022/07/20 10:35:38;;;;;;;4.83;2.20;;;;;;;36.96;21.69;100631.41;2085917;84;33176;-68
2022/07/20 10:38:40;;;;;;;3.92;2.50;;;;;;;36.89;22.34;100626.48;2111366;84;30475;-61
2022/07/20 10:41:47;;;;;;;4.78;2.47;;;;;;;36.81;22.15;100630.50;2111293;84;27739;-62
2022/07/20 10:44:49;;;;;;;2.15;1.87;;;;;;;36.74;22.36;100626.97;2108912;84;29502;-68
2022/07/20 10:47:59;;;;;;;6.83;3.33;;;;;;;36.61;22.08;100630.31;2111201;84;31884;-67
2022/07/20 10:51:10;;;;;;;4.08;3.50;;;;;;;36.54;22.01;100629.56;2104086;84;33645;-63
2022/07/20 10:54:37;;;;;;;5.75;3.22;;;;;;;36.42;21.45;100625.33;2091744;84;29796;-62
2022/07/20 10:57:39;;;;;;;6.97;3.90;;;;;;;36.14;21.46;100626.03;2090044;85;28239;-68
2022/07/20 11:01:12;;;;;;;2.58;1.85;;;;;;;36.01;21.28;100619.55;2089733;85;27711;-67
2022/07/20 11:04:15;;;;;;;7.83;4.55;;;;;;;35.98;22.59;100612.22;2089810;85;31800;-68
2022/07/20 11:07:34;;;;;;;9.50;3.55;;;;;;;35.82;20.91;100611.77;2090392;85;33297;-61
2022/07/20 11:10:37;;;;;;;8.55;4.03;;;;;;;35.65;21.31;100610.21;2090022;85;30469;-64
2022/07/20 11:13:38;;;;;;;9.10;4.37;;;;;;;35.54;20.75;100613.25;2090347;85;27705;-65
2022/07/20 11:16:39;;;;;;;7.05;3.65;;;;;;;35.39;21.26;100607.20;2090164;85;28531;-65
2022/07/20 11:19:41;;;;;;;10.55;3.72;;;;;;;35.32;22.28;100609.21;2089934;85;32305;-66
2022/07/20 11:22:42;;;;;;;3.08;2.08;;;;;;;35.19;22.45;100601.86;2100686;84;33314;-65
2022/07/20 11:25:47;;;;;;;6.80;3.62;;;;;;;35.19;22.76;100601.34;2111354;84;29340;-68
2022/07/20 11:28:54;;;;;;;9.35;4.35;;;;;;;35.16;22.53;100597.62;2111366;84;27670;-61
2022/07/20 11:31:55;;;;;;;2.90;2.50;;;;;;;35.09;21.68;100601.88;2108043;84;28664;-66
2022/07/20 11:34:58;;;;;;;9.35;4.65;;;;;;;35.01;22.52;100600.78;2090079;85;31453;-62
2022/07/20 11:37:59;;;;;;;5.35;3.80;;;;;;;34.92;21.52;100597.42;2090059;85;33619;-67
2022/07/20 11:41:03;;;;;;;6.67;3.60;;;;;;;34.88;22.79;100598.98;2090339;85;29772;-64
2022/07/20 11:44:07;;;;;;;5.42;2.15;;;;;;;34.83;23.31;100600.20;2090119;85;27712;-68
2022/07/20 11:47:08;;;;;;;;;;;;;;;34.88;23.83;100604.55;2092579;85;29871;-64
2022/07/20 11:50:11;;;;;;;6.50;3.60;;;;;;;34.90;23.86;100598.22;2089215;85;31796;-66
2022/07/20 11:53:28;;;;;;;3.12;2.80;;;;;;;34.88;23.44;100596.20;2089398;85;33019;-63
2022/07/20 11:56:31;;;;;;;5.33;4.80;;;;;;;34.90;23.64;100601.53;2090242;85;29329;-64
2022/07/20 11:59:34;;;;;;;6.00;3.98;;;;;;;34.85;22.17;100589.70;2090133;85;27687;-68
2022/07/20 12:02:35;;;;;;;8.80;4.53;;;;;;;34.82;22.11;100585.45;2066602;85;29757;-61
2022/07/20 12:05:37;;;;;;;3.45;2.42;;;;;;;34.81;21.77;100576.80;2090306;85;31397;-67
2022/07/20 12:08:39;;;;;;;11.20;4.87;;;;;;;34.79;22.14;100576.69;2089978;85;33639;-65
2022/07/20 12:12:07;;;;;;;6.95;3.65;;;;;;;34.76;21.92;100572.97;2090334;85;30449;-68
2022/07/20 12:15:09;;;;;;;5.90;4.67;;;;;;;34.72;21.99;100575.38;2021770;87;27748;-61
2022/07/20 12:18:11;;;;;;;7.62;3.87;;;;;;;34.62;22.18;100578.69;2021924;88;29293;-67
2022/07/20 12:21:24;;;;;;;2.55;2.35;;;;;;;34.56;23.44;100569.88;2020955;88;31024;-68
2022/07/20 12:24:25;;;;;;;5.27;4.47;;;;;;;34.48;23.37;100564.59;2017381;88;32376;-64
2022/07/20 12:27:33;;;;;;;4.28;3.83;;;;;;;34.42;22.61;100566.37;2017400;88;29101;-67
2022/07/20 12:30:41;;;;;;;10.18;4.97;;;;;;;34.40;22.92;100568.48;2016980;88;27581;-67
2022/07/20 12:34:09;;;;;;;9.90;5.15;;;;;;;34.31;22.06;100558.75;2017207;88;29718;-66
2022/07/20 12:37:11;;;;;;;6.97;4.62;;;;;;;34.24;22.46;100562.42;2017187;88;30527;-65
2022/07/20 12:40:13;;;;;;;6.80;4.50;;;;;;;34.23;22.18;100570.45;2016866;88;33386;-65
2022/07/20 12:43:36;;;;;;;10.35;5.30;;;;;;;34.21;22.66;100567.60;2016972;88;29991;-62
2022/07/20 12:46:37;;;;;;;8.88;4.37;;;;;;;34.17;22.04;100568.56;2017628;88;27619;-66
2022/07/20 12:49:38;;;;;;;10.13;2.98;;;;;;;34.19;22.15;100565.58;2019325;87;28642;-66
2022/07/20 12:52:40;;;;;;;7.15;4.20;;;;;;;34.19;22.71;100567.80;2066010;85;32019;-66
2022/07/20 12:55:44;;;;;;;8.00;3.30;;;;;;;34.10;22.55;100566.40;2090367;85;32880;-62
2022/07/20 12:58:45;;;;;;;6.83;3.92;;;;;;;34.04;22.66;100566.77;2090747;85;30000;-68
2022/07/20 13:01:48;;;;;;;4.00;2.80;;;;;;;34.01;22.69;100560.27;2090370;85;27556;-67
2022/07/20 13:04:50;;;;;;;8.70;4.37;;;;;;;33.98;22.87;100555.16;2090718;85;29331;-66
2022/07/20 13:07:51;;;;;;;9.65;6.58;;;;;;;33.92;23.13;100558.86;2090423;85;32186;-68
2022/07/20 13:10:52;;;;;;;3.35;2.45;;;;;;;33.91;23.20;100551.59;2090424;85;34119;-61
2022/07/20 13:13:54;;;;;;;8.73;5.60;;;;;;;33.81;22.97;100547.88;2090455;85;29221;-66
2022/07/20 13:16:55;;;;;;;6.55;5.65;;;;;;;33.78;22.70;100545.00;2090963;85;27555;-68
2022/07/20 13:19:56;;;;;;;8.38;3.77;;;;;;;33.84;22.04;100539.63;2090552;85;29307;-66
2022/07/20 13:22:59;;;;;;;3.50;3.02;;;;;;;33.86;23.14;100542.48;2090201;85;32266;-62
2022/07/20 13:26:00;;;;;;;12.82;4.75;;;;;;;33.84;23.68;100538.23;2090863;85;33542;-67
2022/07/20 13:29:02;;;;;;;7.15;4.00;;;;;;;33.77;22.69;100548.02;2090558;85;30470;-68
2022/07/20 13:32:05;;;;;;;11.65;5.53;;;;;;;33.74;23.46;100539.59;2090313;85;27683;-68
2022/07/20 13:35:07;;;;;;;3.65;3.27;;;;;;;33.73;22.78;100530.08;2090562;85;28480;-63
2022/07/20 13:38:09;;;;;;;7.60;5.03;;;;;;;33.79;23.82;100527.25;2090363;85;31079;-66
2022/07/20 13:41:10;;;;;;;6.55;3.05;;;;;;;33.87;22.43;100532.23;2090567;85;33018;-66
2022/07/20 13:44:12;;;;;;;7.67;5.08;;;;;;;33.95;23.51;100529.74;2090565;85;29975;-68
2022/07/20 13:47:14;;;;;;;8.55;4.83;;;;;;;33.95;23.30;100524.19;2090628;85;27697;-68
2022/07/20 13:50:15;;;;;;;6.75;4.80;;;;;;;33.92;23.30;100517.16;2087339;84;29059;-68
2022/07/20 13:53:18;;;;;;;7.92;4.70;;;;;;;33.92;23.27;100515.22;2066990;85;31051;-68
2022/07/20 13:56:20;;;;;;;6.22;4.80;;;;;;;33.93;23.17;100515.53;2065501;85;33324;-67
2022/07/20 13:59:21;;;;;;;3.85;3.05;;;;;;;33.90;22.53;100508.19;2065411;86;29836;-68
2022/07/20 14:02:23;;;;;;;2.30;2.10;;;;;;;33.84;23.19;100506.27;2065483;86;27617;-68
2022/07/20 14:05:25;;;;;;;3.25;2.33;;;;;;;33.85;23.66;100505.20;2065173;86;28428;-69
2022/07/20 14:08:26;;;;;;;6.25;3.47;;;;;;;33.84;24.08;100505.72;2064922;86;31421;-67
2022/07/20 14:11:29;;;;;;;8.13;2.83;;;;;;;33.83;24.04;100499.88;2064889;86;33005;-61